createdAt,value
2023-11-12T00:00:13.072Z,1.63
2023-11-12T00:02:40.575Z,1.73
2023-11-12T00:05:13.063Z,1.50
2023-11-12T00:07:40.364Z,1.10
2023-11-12T00:10:13.115Z,1.13
2023-11-12T00:12:41.136Z,1.00
2023-11-12T00:15:08.958Z,1.10
2023-11-12T00:17:37.403Z,0.90
2023-11-12T00:20:07.092Z,0.90
2023-11-12T00:22:35.138Z,0.90
2023-11-12T00:25:04.589Z,1.10
2023-11-12T00:27:31.734Z,1.57
2023-11-12T00:29:58.854Z,1.00
2023-11-12T00:32:26.494Z,0.87
2023-11-12T00:34:54.329Z,1.07
2023-11-12T00:37:21.574Z,0.90
2023-11-12T00:39:48.705Z,1.30
2023-11-12T00:42:15.785Z,1.00
2023-11-12T00:44:42.999Z,1.37
2023-11-12T00:47:10.298Z,1.00
2023-11-12T00:49:37.386Z,1.10
2023-11-12T00:52:07.585Z,1.30
2023-11-12T00:54:37.513Z,1.00
2023-11-12T00:57:05.644Z,1.30
2023-11-12T00:59:32.742Z,1.23
2023-11-12T01:02:00.298Z,1.17
2023-11-12T01:04:28.677Z,1.20
2023-11-12T01:06:55.749Z,1.00
2023-11-12T01:09:22.872Z,1.00
2023-11-12T01:11:50.004Z,1.07
2023-11-12T01:14:17.252Z,1.00
2023-11-12T01:16:44.369Z,1.00
2023-11-12T01:19:12.618Z,0.97
2023-11-12T01:21:40.532Z,1.00
2023-11-12T01:24:08.329Z,1.03
2023-11-12T01:26:35.460Z,1.10
2023-11-12T01:29:02.594Z,0.90
2023-11-12T01:31:29.680Z,0.83
2023-11-12T01:33:57.125Z,0.90
2023-11-12T01:36:24.307Z,1.20
2023-11-12T01:38:51.569Z,1.20
2023-11-12T01:41:18.754Z,1.03
2023-11-12T01:43:45.981Z,1.20
2023-11-12T01:46:15.061Z,1.40
2023-11-12T01:48:42.517Z,1.57
2023-11-12T01:51:10.497Z,1.30
2023-11-12T01:53:39.081Z,1.10
2023-11-12T01:56:11.751Z,1.23
2023-11-12T01:58:40.580Z,1.60
2023-11-12T02:01:07.930Z,1.40
2023-11-12T02:03:37.397Z,1.10
2023-11-12T02:06:06.668Z,0.80
2023-11-12T02:08:37.119Z,0.93
2023-11-12T02:11:08.940Z,1.20
2023-11-12T02:13:42.695Z,1.80
2023-11-12T02:16:11.318Z,1.17
2023-11-12T02:18:38.853Z,0.97
2023-11-12T02:21:06.529Z,1.10
2023-11-12T02:23:39.109Z,1.03
2023-11-12T02:26:07.564Z,1.80
2023-11-12T02:28:34.806Z,1.70
2023-11-12T02:31:02.040Z,1.30
2023-11-12T02:33:29.560Z,1.10
2023-11-12T02:35:57.477Z,1.10
2023-11-12T02:38:25.303Z,1.50
2023-11-12T02:40:53.204Z,1.57
2023-11-12T02:43:21.409Z,1.60
2023-11-12T02:45:49.240Z,1.60
2023-11-12T02:48:16.638Z,1.37
2023-11-12T02:50:44.540Z,1.77
2023-11-12T02:53:13.183Z,2.00
2023-11-12T02:55:40.637Z,1.67
2023-11-12T02:58:07.753Z,1.20
2023-11-12T03:00:35.124Z,1.70
2023-11-12T03:03:03.386Z,2.00
2023-11-12T03:05:32.961Z,2.77
2023-11-12T03:08:00.441Z,1.70
2023-11-12T03:10:27.834Z,1.20
2023-11-12T03:12:55.518Z,1.43
2023-11-12T03:15:25.283Z,1.80
2023-11-12T03:17:53.789Z,2.63
2023-11-12T03:20:21.638Z,1.80
2023-11-12T03:22:48.904Z,1.93
2023-11-12T03:25:16.282Z,2.03
2023-11-12T03:27:43.656Z,1.80
2023-11-12T03:30:14.210Z,1.70
2023-11-12T03:32:41.878Z,1.30
2023-11-12T03:35:10.608Z,1.70
2023-11-12T03:37:39.262Z,2.17
2023-11-12T03:40:07.439Z,2.20
2023-11-12T03:42:34.603Z,1.70
2023-11-12T03:45:01.852Z,1.70
2023-11-12T03:47:29.009Z,1.67
2023-11-12T03:49:56.119Z,1.37
2023-11-12T03:52:23.225Z,2.37
2023-11-12T03:54:50.282Z,1.90
2023-11-12T03:57:18.492Z,1.70
2023-11-12T03:59:45.974Z,1.73
2023-11-12T04:02:13.073Z,1.53
2023-11-12T04:04:40.353Z,1.40
2023-11-12T04:07:07.696Z,1.60
2023-11-12T04:09:35.126Z,1.73
2023-11-12T04:12:02.610Z,2.30
2023-11-12T04:14:29.719Z,2.47
2023-11-12T04:16:57.543Z,3.07
2023-11-12T04:19:26.016Z,2.10
2023-11-12T04:21:53.150Z,2.30
2023-11-12T04:24:20.267Z,2.07
2023-11-12T04:26:47.463Z,1.73
2023-11-12T04:29:14.734Z,3.43
2023-11-12T04:31:41.972Z,2.27
2023-11-12T04:34:10.285Z,2.87
2023-11-12T04:36:37.649Z,3.13
2023-11-12T04:39:05.737Z,2.70
2023-11-12T04:41:32.892Z,4.50
2023-11-12T04:44:00.605Z,4.83
2023-11-12T04:46:29.214Z,3.40
2023-11-12T04:48:56.446Z,3.53
2023-11-12T04:51:23.762Z,3.67
2023-11-12T04:53:51.590Z,3.10
2023-11-12T04:56:18.829Z,3.43
2023-11-12T04:58:46.071Z,2.53
2023-11-12T05:01:13.538Z,3.10
2023-11-12T05:03:41.588Z,2.63
2023-11-12T05:06:10.199Z,2.00
2023-11-12T05:08:38.864Z,2.93
2023-11-12T05:11:06.030Z,2.80
2023-11-12T05:13:33.193Z,2.70
2023-11-12T05:16:00.367Z,3.27
2023-11-12T05:18:27.491Z,6.57
2023-11-12T05:20:54.598Z,3.57
2023-11-12T05:23:21.943Z,4.90
2023-11-12T05:25:49.261Z,17.23
2023-11-12T05:28:16.695Z,6.70
2023-11-12T05:30:44.448Z,4.90
2023-11-12T05:33:11.625Z,4.33
2023-11-12T05:35:38.829Z,2.63
2023-11-12T05:38:06.553Z,2.27
2023-11-12T05:40:34.203Z,3.70
2023-11-12T05:43:02.063Z,1.80
2023-11-12T05:45:29.223Z,1.70
2023-11-12T05:47:56.430Z,3.90
2023-11-12T05:50:24.393Z,2.70
2023-11-12T05:52:52.387Z,2.50
2023-11-12T05:55:20.063Z,2.00
2023-11-12T05:57:47.197Z,2.30
2023-11-12T06:00:15.060Z,2.00
2023-11-12T06:02:42.788Z,2.40
2023-11-12T06:05:10.431Z,2.20
2023-11-12T06:07:37.563Z,1.90
2023-11-12T06:10:05.133Z,1.80
2023-11-12T06:12:32.292Z,2.20
2023-11-12T06:14:59.502Z,2.30
2023-11-12T06:17:26.601Z,2.20
2023-11-12T06:19:53.954Z,2.33
2023-11-12T06:22:21.463Z,2.77
2023-11-12T06:24:48.908Z,2.70
2023-11-12T06:27:16.286Z,2.87
2023-11-12T06:29:44.685Z,3.80
2023-11-12T06:32:11.733Z,3.40
2023-11-12T06:34:38.867Z,2.70
2023-11-12T06:37:06.476Z,2.67
2023-11-12T06:39:34.548Z,2.40
2023-11-12T06:42:01.933Z,2.90
2023-11-12T06:44:30.073Z,2.70
2023-11-12T06:46:58.475Z,2.73
2023-11-12T06:49:25.733Z,2.90
2023-11-12T06:51:53.095Z,2.80
2023-11-12T06:54:20.394Z,2.40
2023-11-12T06:56:47.546Z,2.23
2023-11-12T06:59:14.684Z,3.37
2023-11-12T07:01:42.510Z,2.80
2023-11-12T07:04:11.904Z,3.20
2023-11-12T07:06:39.474Z,2.80
2023-11-12T07:09:06.886Z,2.23
2023-11-12T07:11:34.243Z,2.07
2023-11-12T07:14:01.606Z,2.03
2023-11-12T07:16:28.898Z,2.00
2023-11-12T07:18:57.271Z,2.37
2023-11-12T07:21:28.914Z,2.60
2023-11-12T07:23:56.512Z,1.90
2023-11-12T07:26:25.713Z,1.80
2023-11-12T07:28:53.680Z,3.20
2023-11-12T07:31:24.372Z,2.20
2023-11-12T07:33:52.178Z,2.87
2023-11-12T07:36:20.014Z,3.40
2023-11-12T07:38:48.391Z,3.00
2023-11-12T07:41:15.520Z,2.33
2023-11-12T07:43:42.793Z,2.43
2023-11-12T07:46:09.978Z,2.70
2023-11-12T07:48:37.354Z,2.80
2023-11-12T07:51:04.928Z,1.80
2023-11-12T07:53:32.045Z,2.10
2023-11-12T07:55:59.140Z,1.60
2023-11-12T07:58:26.387Z,2.00
2023-11-12T08:00:53.477Z,1.70
2023-11-12T08:03:22.538Z,2.23
2023-11-12T08:05:50.483Z,1.90
2023-11-12T08:08:17.586Z,1.97
2023-11-12T08:10:44.693Z,1.90
2023-11-12T08:13:12.169Z,2.50
2023-11-12T08:15:39.320Z,1.60
2023-11-12T08:18:07.359Z,2.30
2023-11-12T08:20:35.851Z,1.10
2023-11-12T08:23:04.577Z,2.20
2023-11-12T08:25:31.718Z,1.37
2023-11-12T08:27:59.106Z,2.10
2023-11-12T08:30:26.300Z,1.80
2023-11-12T08:32:53.700Z,2.37
2023-11-12T08:35:20.863Z,2.10
2023-11-12T08:37:48.014Z,1.20
2023-11-12T08:40:19.336Z,1.73
2023-11-12T08:42:47.372Z,1.67
2023-11-12T08:45:15.557Z,1.50
2023-11-12T08:47:42.910Z,1.40
2023-11-12T08:50:10.759Z,1.50
2023-11-12T08:52:39.420Z,1.60
2023-11-12T08:55:09.756Z,1.80
2023-11-12T08:57:36.920Z,1.43
2023-11-12T09:00:07.804Z,1.83
2023-11-12T09:02:35.328Z,1.80
2023-11-12T09:05:03.268Z,1.70
2023-11-12T09:07:30.428Z,1.90
2023-11-12T09:09:58.083Z,2.00
2023-11-12T09:12:25.301Z,2.37
2023-11-12T09:14:52.409Z,1.73
2023-11-12T09:17:19.709Z,1.90
2023-11-12T09:19:46.810Z,1.93
2023-11-12T09:22:13.944Z,1.70
2023-11-12T09:25:00.460Z,1.50
2023-11-12T09:27:34.749Z,1.53
2023-11-12T09:30:02.031Z,1.40
2023-11-12T09:32:30.060Z,1.10
2023-11-12T09:34:57.162Z,0.90
2023-11-12T09:37:24.904Z,1.10
2023-11-12T09:39:52.096Z,1.20
2023-11-12T09:42:23.438Z,1.40
2023-11-12T09:44:54.432Z,1.30
2023-11-12T09:47:47.256Z,0.90
2023-11-12T09:50:14.733Z,0.93
2023-11-12T09:52:42.242Z,0.90
2023-11-12T09:55:11.653Z,1.03
2023-11-12T09:57:38.783Z,1.30
2023-11-12T10:00:08.286Z,2.00
2023-11-12T10:02:38.436Z,3.90
2023-11-12T10:05:11.655Z,1.50
2023-11-12T10:07:39.542Z,1.30
2023-11-12T10:10:27.647Z,1.70
2023-11-12T10:12:55.709Z,1.33
2023-11-12T10:15:31.986Z,3.50
2023-11-12T10:18:01.978Z,1.27
2023-11-12T10:20:33.228Z,1.67
2023-11-12T10:23:00.357Z,1.57
2023-11-12T10:25:42.096Z,1.10
2023-11-12T10:28:11.819Z,1.73
2023-11-12T10:30:42.906Z,1.40
2023-11-12T10:33:25.234Z,3.10
2023-11-12T10:35:53.394Z,1.80
2023-11-12T10:38:20.512Z,1.60
2023-11-12T10:41:17.162Z,2.60
2023-11-12T10:43:58.527Z,3.73
2023-11-12T10:46:27.088Z,1.90
2023-11-12T10:48:56.569Z,1.70
2023-11-12T10:51:26.529Z,2.23
2023-11-12T10:53:57.752Z,1.67
2023-11-12T10:56:27.173Z,2.50
2023-11-12T10:58:55.294Z,1.73
2023-11-12T11:01:24.215Z,1.90
2023-11-12T11:03:52.772Z,2.10
2023-11-12T11:06:20.323Z,2.30
2023-11-12T11:08:47.513Z,1.80
2023-11-12T11:11:14.863Z,1.97
2023-11-12T11:13:42.070Z,2.10
2023-11-12T11:16:09.735Z,2.20
2023-11-12T11:18:57.192Z,1.53
2023-11-12T11:21:24.570Z,1.90
2023-11-12T11:23:53.726Z,1.80
2023-11-12T11:26:32.260Z,1.80
2023-11-12T11:29:17.816Z,2.13
2023-11-12T11:32:18.585Z,2.20
2023-11-12T11:34:46.762Z,2.27
2023-11-12T11:37:16.255Z,2.80
2023-11-12T11:39:43.496Z,2.97
2023-11-12T11:42:14.046Z,2.33
2023-11-12T11:44:43.274Z,2.77
2023-11-12T11:47:37.444Z,2.30
2023-11-12T11:50:46.061Z,2.00
2023-11-12T11:53:14.816Z,2.10
2023-11-12T11:55:48.320Z,1.80
2023-11-12T11:58:15.941Z,1.83
2023-11-12T12:01:00.362Z,2.00
2023-11-12T12:03:29.751Z,1.60
2023-11-12T12:05:58.312Z,1.80
2023-11-12T12:08:25.755Z,1.60
2023-11-12T12:10:53.118Z,1.50
2023-11-12T12:13:23.288Z,1.07
2023-11-12T12:15:50.597Z,1.30
2023-11-12T12:18:24.131Z,0.90
2023-11-12T12:20:56.180Z,0.70
2023-11-12T12:23:23.517Z,0.67
2023-11-12T12:25:53.665Z,0.80
2023-11-12T12:28:21.744Z,0.70
2023-11-12T12:30:53.182Z,0.60
2023-11-12T12:33:20.474Z,0.80
2023-11-12T12:35:47.601Z,0.60
2023-11-12T12:38:14.722Z,0.70
2023-11-12T12:40:42.390Z,0.50
2023-11-12T12:43:11.631Z,0.90
2023-11-12T12:45:39.540Z,0.80
2023-11-12T12:48:13.354Z,0.60
2023-11-12T12:50:40.867Z,0.50
2023-11-12T12:53:16.283Z,0.40
2023-11-12T12:55:45.000Z,0.20
2023-11-12T12:58:13.213Z,0.23
2023-11-12T13:00:42.408Z,0.37
2023-11-12T13:03:22.712Z,0.90
2023-11-12T13:05:52.168Z,1.30
2023-11-12T13:08:20.690Z,1.00
2023-11-12T13:10:49.618Z,0.80
2023-11-12T13:13:20.334Z,0.50
2023-11-12T13:15:50.421Z,0.30
2023-11-12T13:18:19.188Z,0.20
2023-11-12T13:20:47.012Z,0.30
2023-11-12T13:23:14.963Z,0.20
2023-11-12T13:25:43.321Z,0.20
2023-11-12T13:28:13.107Z,0.40
2023-11-12T13:30:40.647Z,0.10
2023-11-12T13:33:08.992Z,0.40
2023-11-12T13:35:36.724Z,0.50
2023-11-12T13:38:03.864Z,0.20
2023-11-12T13:40:31.782Z,0.20
2023-11-12T13:42:59.087Z,0.23
2023-11-12T13:45:26.330Z,0.30
2023-11-12T13:47:55.514Z,0.40
2023-11-12T13:50:29.454Z,1.00
2023-11-12T13:53:00.062Z,0.50
2023-11-12T13:55:30.436Z,0.70
2023-11-12T13:57:59.939Z,1.40
2023-11-12T14:00:31.824Z,0.67
2023-11-12T14:03:02.118Z,0.80
2023-11-12T14:05:29.656Z,0.50
2023-11-12T14:07:57.421Z,0.60
2023-11-12T14:10:26.393Z,0.70
2023-11-12T14:12:54.054Z,0.50
2023-11-12T14:15:23.261Z,0.20
2023-11-12T14:17:50.670Z,0.43
2023-11-12T14:20:26.777Z,0.50
2023-11-12T14:22:56.403Z,0.40
2023-11-12T14:25:24.800Z,0.40
2023-11-12T14:27:53.773Z,0.40
2023-11-12T14:30:21.266Z,0.40
2023-11-12T14:32:49.076Z,0.40
2023-11-12T14:35:19.638Z,0.60
2023-11-12T14:37:48.729Z,0.57
2023-11-12T14:40:17.562Z,0.60
2023-11-12T14:42:45.216Z,0.73
2023-11-12T14:47:46.111Z,0.70
2023-11-12T14:50:13.828Z,0.60
2023-11-12T14:52:44.713Z,0.63
2023-11-12T14:55:22.225Z,1.00
2023-11-12T14:57:55.769Z,0.90
2023-11-12T15:00:30.695Z,0.90
2023-11-12T15:03:00.242Z,1.00
2023-11-12T15:05:29.576Z,0.90
2023-11-12T15:07:56.879Z,0.70
2023-11-12T15:10:24.338Z,0.90
2023-11-12T15:12:52.338Z,1.00
2023-11-12T15:15:21.145Z,0.60
2023-11-12T15:17:49.529Z,1.00
2023-11-12T15:20:17.637Z,0.50
2023-11-12T15:22:45.511Z,0.40
2023-11-12T15:25:16.753Z,0.70
2023-11-12T15:27:46.246Z,1.00
2023-11-12T15:30:14.705Z,0.70
2023-11-12T15:32:46.454Z,0.73
2023-11-12T15:35:16.075Z,0.90
2023-11-12T15:37:43.851Z,0.70
2023-11-12T15:40:24.178Z,0.60
2023-11-12T15:42:54.986Z,0.80
2023-11-12T15:45:26.107Z,0.80
2023-11-12T15:47:53.688Z,0.70
2023-11-12T15:50:23.735Z,1.00
2023-11-12T15:52:51.495Z,0.70
2023-11-12T15:55:18.971Z,0.63
2023-11-12T15:57:46.404Z,0.57
2023-11-12T16:00:14.640Z,0.70
2023-11-12T16:02:42.613Z,0.70
2023-11-12T16:05:11.185Z,0.70
2023-11-12T16:07:39.428Z,0.90
2023-11-12T16:10:07.693Z,1.00
2023-11-12T16:12:34.801Z,1.10
2023-11-12T16:15:06.002Z,0.70
2023-11-12T16:17:33.710Z,0.90
2023-11-12T16:20:01.507Z,0.90
2023-11-12T16:22:28.857Z,0.60
2023-11-12T16:24:56.014Z,0.77
2023-11-12T16:27:23.595Z,0.70
2023-11-12T16:29:50.765Z,0.50
2023-11-12T16:32:21.100Z,0.50
2023-11-12T16:34:48.225Z,0.60
2023-11-12T16:37:16.061Z,0.67
2023-11-12T16:39:45.964Z,0.50
2023-11-12T16:42:15.178Z,0.67
2023-11-12T16:44:43.296Z,1.13
2023-11-12T16:47:11.368Z,0.90
2023-11-12T16:49:38.843Z,0.80
2023-11-12T16:52:08.459Z,0.80
2023-11-12T16:54:36.240Z,0.70
2023-11-12T16:57:11.059Z,0.33
2023-11-12T16:59:39.819Z,0.50
2023-11-12T17:02:11.209Z,0.60
2023-11-12T17:04:42.437Z,0.47
2023-11-12T17:07:12.273Z,0.20
2023-11-12T17:09:41.944Z,0.40
2023-11-12T17:12:10.151Z,0.40
2023-11-12T17:14:37.326Z,0.30
2023-11-12T17:17:04.685Z,0.30
2023-11-12T17:19:31.888Z,0.30
2023-11-12T17:21:59.274Z,0.20
2023-11-12T17:24:26.390Z,0.30
2023-11-12T17:26:54.978Z,0.30
2023-11-12T17:29:22.465Z,0.00
2023-11-12T17:31:51.794Z,0.20
2023-11-12T17:34:20.137Z,0.00
2023-11-12T17:36:49.057Z,0.00
2023-11-12T17:39:22.731Z,0.00
2023-11-12T17:41:51.007Z,0.20
2023-11-12T17:44:18.458Z,0.30
2023-11-12T17:46:46.330Z,0.20
2023-11-12T17:49:14.022Z,0.20
2023-11-12T17:51:42.602Z,0.20
2023-11-12T17:54:09.858Z,0.30
2023-11-12T17:56:37.474Z,0.20
2023-11-12T17:59:04.691Z,0.00
2023-11-12T18:01:31.817Z,0.10
2023-11-12T18:04:00.514Z,0.00
2023-11-12T18:06:28.051Z,0.00
2023-11-12T18:08:55.267Z,0.10
2023-11-12T18:11:22.498Z,0.00
2023-11-12T18:13:49.587Z,0.00
2023-11-12T18:16:16.915Z,0.03
2023-11-12T18:18:44.251Z,0.10
2023-11-12T18:21:13.395Z,0.10
2023-11-12T18:23:41.197Z,0.10
2023-11-12T18:26:10.982Z,0.10
2023-11-12T18:28:38.846Z,0.20
2023-11-12T18:31:06.803Z,0.30
2023-11-12T18:33:36.375Z,0.10
2023-11-12T18:36:03.785Z,0.10
2023-11-12T18:38:33.067Z,0.10
2023-11-12T18:41:00.289Z,0.10
2023-11-12T18:43:28.069Z,0.30
2023-11-12T18:45:57.523Z,0.23
2023-11-12T18:48:25.334Z,0.20
2023-11-12T18:50:52.786Z,0.20
2023-11-12T18:53:21.851Z,0.30
2023-11-12T18:55:49.130Z,0.47
2023-11-12T18:58:17.912Z,0.47
2023-11-12T19:00:45.742Z,0.60
2023-11-12T19:03:13.088Z,0.43
2023-11-12T19:05:40.252Z,0.70
2023-11-12T19:08:10.586Z,0.80
2023-11-12T19:10:38.599Z,1.00
2023-11-12T19:13:05.885Z,0.70
2023-11-12T19:15:33.104Z,0.90
2023-11-12T19:18:00.785Z,0.70
2023-11-12T19:20:28.005Z,0.60
2023-11-12T19:22:55.180Z,1.00
2023-11-12T19:25:22.469Z,0.90
2023-11-12T19:27:50.647Z,0.97
2023-11-12T19:30:18.139Z,0.93
2023-11-12T19:32:46.175Z,1.40
2023-11-12T19:35:14.195Z,1.40
2023-11-12T19:37:41.547Z,1.20
2023-11-12T19:40:09.822Z,1.30
2023-11-12T19:42:37.508Z,1.13
2023-11-12T19:45:07.798Z,1.50
2023-11-12T19:47:35.006Z,1.47
2023-11-12T19:50:02.317Z,1.50
2023-11-12T19:52:29.914Z,1.13
2023-11-12T19:54:57.339Z,1.27
2023-11-12T19:57:24.456Z,1.37
2023-11-12T19:59:51.675Z,1.20
2023-11-12T20:02:18.799Z,1.30
2023-11-12T20:04:45.998Z,1.70
2023-11-12T20:07:13.320Z,1.60
2023-11-12T20:09:40.646Z,1.53
2023-11-12T20:12:08.483Z,1.90
2023-11-12T20:14:38.245Z,1.63
2023-11-12T20:17:11.178Z,1.53
2023-11-12T20:19:40.581Z,1.40
2023-11-12T20:22:07.716Z,1.47
2023-11-12T20:24:38.537Z,1.60
2023-11-12T20:27:10.527Z,1.60
2023-11-12T20:29:39.715Z,2.03
2023-11-12T20:32:07.430Z,1.70
2023-11-12T20:34:34.984Z,1.60
2023-11-12T20:37:02.371Z,1.50
2023-11-12T20:39:29.519Z,1.37
2023-11-12T20:41:57.735Z,1.40
2023-11-12T20:44:25.012Z,1.70
2023-11-12T20:46:52.274Z,1.07
2023-11-12T20:49:19.881Z,1.27
2023-11-12T20:51:48.244Z,1.17
2023-11-12T20:54:19.715Z,1.73
2023-11-12T20:56:46.932Z,1.20
2023-11-12T20:59:14.366Z,1.33
2023-11-12T21:01:41.887Z,0.93
2023-11-12T21:04:12.911Z,0.90
2023-11-12T21:06:42.016Z,0.90
2023-11-12T21:09:10.079Z,1.00
2023-11-12T21:11:46.898Z,0.60
2023-11-12T21:14:16.390Z,0.40
2023-11-12T21:16:44.260Z,0.67
2023-11-12T21:19:11.785Z,0.50
2023-11-12T21:21:40.047Z,0.50
2023-11-12T21:24:09.916Z,0.60
2023-11-12T21:26:38.430Z,0.40
2023-11-12T21:29:05.578Z,0.50
2023-11-12T21:31:32.783Z,0.30
2023-11-12T21:33:59.929Z,0.33
2023-11-12T21:36:27.087Z,0.30
2023-11-12T21:38:54.449Z,0.30
2023-11-12T21:41:24.117Z,0.30
2023-11-12T21:43:53.933Z,0.40
2023-11-12T21:46:21.271Z,0.20
2023-11-12T21:48:51.438Z,0.33
2023-11-12T21:51:19.464Z,0.20
2023-11-12T21:53:46.804Z,0.30
2023-11-12T21:56:14.183Z,0.20
2023-11-12T21:58:41.550Z,0.23
2023-11-12T22:01:11.814Z,0.20
2023-11-12T22:03:39.608Z,0.23
2023-11-12T22:06:10.223Z,0.40
2023-11-12T22:08:37.379Z,0.40
2023-11-12T22:11:06.387Z,0.40
2023-11-12T22:13:34.083Z,0.50
2023-11-12T22:16:01.713Z,0.50
2023-11-12T22:18:29.861Z,0.47
2023-11-12T22:20:57.343Z,0.50
2023-11-12T22:23:25.754Z,0.30
2023-11-12T22:25:54.051Z,0.40
2023-11-12T22:28:21.586Z,0.40
2023-11-12T22:30:50.290Z,0.20
2023-11-12T22:33:18.318Z,0.43
2023-11-12T22:35:45.848Z,0.40
2023-11-12T22:38:13.428Z,0.43
2023-11-12T22:40:40.907Z,0.30
2023-11-12T22:43:08.426Z,0.20
2023-11-12T22:45:36.258Z,0.10
2023-11-12T22:48:03.791Z,0.20
2023-11-12T22:50:31.318Z,0.20
2023-11-12T22:52:58.832Z,0.20
2023-11-12T22:55:26.301Z,0.40
2023-11-12T22:57:53.849Z,0.30
2023-11-12T23:00:40.538Z,0.10
2023-11-12T23:03:13.663Z,0.40
2023-11-12T23:05:42.152Z,0.23
2023-11-12T23:08:09.889Z,0.20
2023-11-12T23:10:37.637Z,0.50
2023-11-12T23:13:05.436Z,0.30
2023-11-12T23:15:34.656Z,0.40
2023-11-12T23:18:02.344Z,0.10
2023-11-12T23:20:30.109Z,0.20
2023-11-12T23:22:58.859Z,0.20
2023-11-12T23:25:26.837Z,0.10
2023-11-12T23:27:54.384Z,0.23
2023-11-12T23:30:21.838Z,0.17
2023-11-12T23:32:50.034Z,0.10
2023-11-12T23:35:17.534Z,0.17
2023-11-12T23:37:44.942Z,0.10
2023-11-12T23:40:13.199Z,0.10
2023-11-12T23:42:40.704Z,0.10
2023-11-12T23:45:08.809Z,0.10
2023-11-12T23:47:36.822Z,0.03
2023-11-12T23:50:04.544Z,0.10
2023-11-12T23:52:32.688Z,0.20
2023-11-12T23:55:00.663Z,0.10
2023-11-12T23:57:28.712Z,0.20
2023-11-12T23:59:56.348Z,0.00
